Huvudsida
METAR-TAF:

METAR-TAF

Flygplatser :

Uruguaiana Aeroporto

Uruguaiana, Rio Grande do Sul, Brasilien

latitud: 29-47S, longitud: 057-02W, höjd: 74 m

METAR: saknas

Tid: 08:59 (11:59 UTC)

Väderprognos

Denna rapport gjordes för 2 timmar och 59 minuter sedan, klockan 09:00 UTC
Prognos gäller från 16 kl. 12 UTC till 16 kl. 24 UTC
Vind 7 kt från väst/sydväst
Sikt 10 km eller mer
Inga moln under 1 500 m eller inga cumulonimbus
Blir
från 16 kl. 14 UTC till 16 kl. 16 UTC
Vind 15 kt från sydväst

TAF: SBUG 160900Z 1612/1624 25007KT CAVOK TN09/1612Z TX13/1617Z BECMG 1614/1616 22015KT RMK PCQ

Aktuella väderrapporter och prognoser från 4000 flygplatser (METAR- och TAF-rapporter).

De tillgängliga stationerna syns som gula och röda prickar på kartan.

För musen över prickarna för att se namnen på stationerna.

Klicka sedan för att få väderrapporter och prognoser.

För att ändra kartan: Klicka på de gröna knapparna med ett svart kors på för att zooma in; den gröna knappen med ett streck på för att zooma ut; eller på de gröna pilarna för angränsande kartor.


METAR-TAF: